KLGATNCM

Guest
Details From KLGA - La Guardia
To TNCM - St Maarten - Princess Juliana Intl
Flight Number -
Tags decoded
Created
Modified
Stats Distance 1,482 nm / 2,744 km
Max Altitude 0 ft / 0 m
Waypoints 6
Social Downloads 6
Likes 0
Share VATSIM

Download

Looking for another format? Having issues loading an existing format? Contact us
Advertisement - Login to hide

Notes

Requested: KLGA BEXUM PJM09 PJM07 PJM02 TNCM

Route

KLGA BEXUM PJM09 PJM07 PJM02 TNCM

ID Type Via Altitude Latitude Longitude Leg Dist Tot Dist Heading (true) Name
O KLGA APT - 0 ft / 0 m 40.77724˚ -73.87261˚ - 0 nm - La Guardia
BEXUM FIX - 0 ft / 0 m 33.30231˚ -69.81248˚ 489 nm 489 nm 155° / 158° -
PJM09 FIX - 0 ft / 0 m 18.02230˚ -63.27493˚ 982 nm 1472 nm 157° / 160° -
PJM07 FIX - 0 ft / 0 m 18.02582˚ -63.24012˚ 1 nm 1474 nm 84° / 84° -
PJM02 FIX - 0 ft / 0 m 18.03461˚ -63.15309˚ 4 nm 1479 nm 84° / 84° -
O TNCM APT - 0 ft / 0 m 18.04089˚ -63.10897˚ 2 nm 1481 nm 81° / 81° St Maarten - Princess Juliana Intl

Altitude Profile

Advertisement - Login to hide

Weather


0- 5 10 15 20 25 30 35+ Temperature / ° C

Clouds and Precipitation
Forecast for 2017-12-18 18:00 UTC. Updated 2 hours ago

Ground ~20,000 ft ~40,000 ft Winds

KLGA

Details ICAO KLGA (LGA)
Name La Guardia
Region United States
Timezone America/New_York (UTC-5.0)
Stats Elevation 22 ft / 7 m (AMSL)
Location 40.777236° -73.872610°
Runways 2
Magnetic Variation 12.980° W

METAR

KLGA 181634Z 06005KT 10SM OVC009 04/00 A3005 RMK AO2 T00440000 $

Decode

TAF

TAF AMD KLGA 181538Z 1816/1918 04006KT P6SM SCT007 OVC012 TEMPO 1816/1819 BKN007 OVC012 FM181900 34006KT P6SM SCT007 BKN015 FM182200 26007KT P6SM BKN070 FM190600 27008KT P6SM SCT050 FM191500 25014G22KT P6SM SCT025 SCT050

Decode

Departure Runways

ID Width Length Bearing (true) Bearing (mag) Surface Threshold Offset Overrun Length
04 151 ft / 46 m 7,002 ft / 2,134 m 32.04° 45.02° Asphalt 0 ft / 0 m 312 ft / 95 m
13 151 ft / 46 m 6,990 ft / 2,130 m 122.24° 135.22° Asphalt 0 ft / 0 m 98 ft / 30 m
22 151 ft / 46 m 7,002 ft / 2,134 m 212.05° 225.03° Asphalt 0 ft / 0 m 92 ft / 28 m
31 151 ft / 46 m 6,990 ft / 2,130 m 302.26° 315.24° Asphalt 0 ft / 0 m 361 ft / 110 m

TNCM

Details ICAO TNCM (SXM)
Name St Maarten - Princess Juliana Intl
Region Caribbean Netherlands, Aruba, Curaçao, Sint Maarten
Timezone Unknown (UTC+0.0)
Stats Elevation 12 ft / 4 m (AMSL)
Location 18.040889° -63.108974°
Runways 1
Magnetic Variation 14.325° W

METAR

TNCM 181600Z 08014KT 040V110 9999 SCT021 29/22 Q1017 A3005 NOSIG

Decode

TAF

TAF TNCM 181137Z 1812/1912 05012KT P6SM -SHRA FEW016 SCT040 FM181430 07017KT P6SM VCSH SCT020 FM182300 07010KT P6SM SCT018

Decode

Destination Runways

ID Width Length Bearing (true) Bearing (mag) Surface Threshold Offset Overrun Length
10 148 ft / 45 m 7,464 ft / 2,275 m 81.43° 95.76° Asphalt 0 ft / 0 m 151 ft / 46 m
28 148 ft / 45 m 7,464 ft / 2,275 m 261.44° 275.77° Asphalt 397 ft / 121 m 0 ft / 0 m

Popular Alternatives